sensor_id;sensor_type;location;lat;lon;timestamp;temperature;humidity
37906;DHT22;23739;51.448;6.674;2024-02-14T08:11:43;10.30;1.00
37906;DHT22;23739;51.448;6.674;2024-02-14T08:14:08;10.30;99.90
37906;DHT22;23739;51.448;6.674;2024-02-14T08:16:34;10.40;1.00
37906;DHT22;23739;51.448;6.674;2024-02-14T08:19:01;10.50;1.00
37906;DHT22;23739;51.448;6.674;2024-02-14T08:23:55;10.40;1.00
37906;DHT22;23739;51.448;6.674;2024-02-14T08:26:23;10.50;39.20
37906;DHT22;23739;51.448;6.674;2024-02-14T08:28:49;10.40;99.90
37906;DHT22;23739;51.448;6.674;2024-02-14T08:31:15;10.40;32.30
37906;DHT22;23739;51.448;6.674;2024-02-14T08:33:41;10.40;99.90
37906;DHT22;23739;51.448;6.674;2024-02-14T08:38:33;10.40;69.30
37906;DHT22;23739;51.448;6.674;2024-02-14T08:41:03;10.40;86.80
37906;DHT22;23739;51.448;6.674;2024-02-14T08:43:29;10.40;99.90
37906;DHT22;23739;51.448;6.674;2024-02-14T08:45:56;10.40;99.90
37906;DHT22;23739;51.448;6.674;2024-02-14T08:48:22;10.40;99.90
37906;DHT22;23739;51.448;6.674;2024-02-14T08:50:48;10.40;14.40
37906;DHT22;23739;51.448;6.674;2024-02-14T08:53:15;10.40;99.90
37906;DHT22;23739;51.448;6.674;2024-02-14T08:55:41;10.40;99.90
37906;DHT22;23739;51.448;6.674;2024-02-14T08:58:07;10.40;37.20
37906;DHT22;23739;51.448;6.674;2024-02-14T09:00:36;10.30;1.00
37906;DHT22;23739;51.448;6.674;2024-02-14T09:03:03;10.40;99.90
37906;DHT22;23739;51.448;6.674;2024-02-14T09:05:29;10.40;99.90
37906;DHT22;23739;51.448;6.674;2024-02-14T09:07:54;10.40;99.90
37906;DHT22;23739;51.448;6.674;2024-02-14T09:10:21;10.40;99.90
37906;DHT22;23739;51.448;6.674;2024-02-14T09:12:47;10.50;1.00
37906;DHT22;23739;51.448;6.674;2024-02-14T09:15:13;10.50;1.00
37906;DHT22;23739;51.448;6.674;2024-02-14T09:17:39;10.50;1.00
37906;DHT22;23739;51.448;6.674;2024-02-14T09:20:10;10.40;99.90
37906;DHT22;23739;51.448;6.674;2024-02-14T09:22:36;10.50;99.90
37906;DHT22;23739;51.448;6.674;2024-02-14T09:25:02;10.50;99.90
37906;DHT22;23739;51.448;6.674;2024-02-14T09:27:30;10.50;99.90
37906;DHT22;23739;51.448;6.674;2024-02-14T09:29:56;10.50;99.90
37906;DHT22;23739;51.448;6.674;2024-02-14T09:32:22;10.50;99.90
37906;DHT22;23739;51.448;6.674;2024-02-14T09:34:47;10.60;99.90
37906;DHT22;23739;51.448;6.674;2024-02-14T09:37:13;10.80;1.00
37906;DHT22;23739;51.448;6.674;2024-02-14T09:39:39;10.90;99.90
37906;DHT22;23739;51.448;6.674;2024-02-14T09:42:14;11.00;99.90
37906;DHT22;23739;51.448;6.674;2024-02-14T09:44:41;11.10;99.90
37906;DHT22;23739;51.448;6.674;2024-02-14T09:47:08;11.20;99.90
37906;DHT22;23739;51.448;6.674;2024-02-14T09:49:35;11.20;99.90
37906;DHT22;23739;51.448;6.674;2024-02-14T09:52:05;11.20;1.00
37906;DHT22;23739;51.448;6.674;2024-02-14T09:54:32;11.30;1.00
37906;DHT22;23739;51.448;6.674;2024-02-14T09:57:02;11.30;1.00
37906;DHT22;23739;51.448;6.674;2024-02-14T09:59:35;11.30;35.00
37906;DHT22;23739;51.448;6.674;2024-02-14T10:02:02;11.40;2.50
37906;DHT22;23739;51.448;6.674;2024-02-14T10:04:27;11.40;99.90
37906;DHT22;23739;51.448;6.674;2024-02-14T10:06:53;11.40;1.00
37906;DHT22;23739;51.448;6.674;2024-02-14T10:09:22;11.40;1.00
37906;DHT22;23739;51.448;6.674;2024-02-14T10:11:49;11.40;1.00
37906;DHT22;23739;51.448;6.674;2024-02-14T10:14:14;11.40;1.00
37906;DHT22;23739;51.448;6.674;2024-02-14T10:16:40;11.40;99.90
37906;DHT22;23739;51.448;6.674;2024-02-14T10:19:15;11.50;99.90
37906;DHT22;23739;51.448;6.674;2024-02-14T10:21:41;11.50;99.90
37906;DHT22;23739;51.448;6.674;2024-02-14T10:24:07;11.60;99.90
37906;DHT22;23739;51.448;6.674;2024-02-14T10:26:39;11.60;99.90
37906;DHT22;23739;51.448;6.674;2024-02-14T10:29:06;11.60;99.90
37906;DHT22;23739;51.448;6.674;2024-02-14T10:31:31;11.50;99.90
37906;DHT22;23739;51.448;6.674;2024-02-14T10:33:57;11.50;99.90
37906;DHT22;23739;51.448;6.674;2024-02-14T10:36:24;11.60;99.90
37906;DHT22;23739;51.448;6.674;2024-02-14T10:38:52;11.70;1.00
37906;DHT22;23739;51.448;6.674;2024-02-14T10:41:19;11.80;1.00
37906;DHT22;23739;51.448;6.674;2024-02-14T10:43:45;11.60;1.00
37906;DHT22;23739;51.448;6.674;2024-02-14T10:46:19;11.60;1.00
37906;DHT22;23739;51.448;6.674;2024-02-14T10:48:47;11.70;1.00
37906;DHT22;23739;51.448;6.674;2024-02-14T10:51:15;11.70;1.00
37906;DHT22;23739;51.448;6.674;2024-02-14T10:53:44;11.90;99.90
37906;DHT22;23739;51.448;6.674;2024-02-14T10:56:19;12.10;99.90
37906;DHT22;23739;51.448;6.674;2024-02-14T10:58:48;12.10;99.90
37906;DHT22;23739;51.448;6.674;2024-02-14T11:01:15;12.00;99.90
37906;DHT22;23739;51.448;6.674;2024-02-14T11:03:43;12.00;99.90
37906;DHT22;23739;51.448;6.674;2024-02-14T11:06:15;12.00;99.90
37906;DHT22;23739;51.448;6.674;2024-02-14T11:08:42;12.00;99.90
37906;DHT22;23739;51.448;6.674;2024-02-14T11:11:08;12.00;99.90
37906;DHT22;23739;51.448;6.674;2024-02-14T11:13:35;12.00;38.00
37906;DHT22;23739;51.448;6.674;2024-02-14T11:16:02;11.90;1.00
37906;DHT22;23739;51.448;6.674;2024-02-14T11:18:30;12.00;1.00
37906;DHT22;23739;51.448;6.674;2024-02-14T11:20:56;12.00;99.90
37906;DHT22;23739;51.448;6.674;2024-02-14T11:23:25;12.00;1.00
37906;DHT22;23739;51.448;6.674;2024-02-14T11:26:03;12.10;1.00
37906;DHT22;23739;51.448;6.674;2024-02-14T11:28:29;12.10;1.00
37906;DHT22;23739;51.448;6.674;2024-02-14T11:31:00;12.10;99.90
37906;DHT22;23739;51.448;6.674;2024-02-14T11:33:29;12.10;99.90
37906;DHT22;23739;51.448;6.674;2024-02-14T11:35:55;12.20;99.90
37906;DHT22;23739;51.448;6.674;2024-02-14T11:38:23;12.20;99.90
37906;DHT22;23739;51.448;6.674;2024-02-14T11:40:54;12.20;99.90
37906;DHT22;23739;51.448;6.674;2024-02-14T11:43:22;12.30;99.90
37906;DHT22;23739;51.448;6.674;2024-02-14T11:45:51;12.40;99.90
37906;DHT22;23739;51.448;6.674;2024-02-14T11:48:18;12.50;55.10
37906;DHT22;23739;51.448;6.674;2024-02-14T11:50:46;12.60;99.90
37906;DHT22;23739;51.448;6.674;2024-02-14T11:53:13;12.60;99.90
37906;DHT22;23739;51.448;6.674;2024-02-14T11:55:42;12.60;99.90
37906;DHT22;23739;51.448;6.674;2024-02-14T11:58:09;12.70;99.90
37906;DHT22;23739;51.448;6.674;2024-02-14T12:00:45;12.80;1.00
37906;DHT22;23739;51.448;6.674;2024-02-14T12:03:17;12.60;99.90
37906;DHT22;23739;51.448;6.674;2024-02-14T12:05:45;12.50;99.90
37906;DHT22;23739;51.448;6.674;2024-02-14T12:08:13;12.30;99.90
37906;DHT22;23739;51.448;6.674;2024-02-14T12:10:41;12.10;99.90
37906;DHT22;23739;51.448;6.674;2024-02-14T12:13:11;12.20;1.00
37906;DHT22;23739;51.448;6.674;2024-02-14T12:15:41;12.20;1.00
37906;DHT22;23739;51.448;6.674;2024-02-14T12:18:11;12.30;1.00
37906;DHT22;23739;51.448;6.674;2024-02-14T12:20:37;12.30;1.00
37906;DHT22;23739;51.448;6.674;2024-02-14T12:23:04;12.40;1.00
37906;DHT22;23739;51.448;6.674;2024-02-14T12:25:34;12.40;1.00
37906;DHT22;23739;51.448;6.674;2024-02-14T12:35:47;12.10;99.90
37906;DHT22;23739;51.448;6.674;2024-02-14T12:38:15;12.10;99.90
37906;DHT22;23739;51.448;6.674;2024-02-14T12:40:41;12.20;1.00
37906;DHT22;23739;51.448;6.674;2024-02-14T12:43:08;12.30;99.90
37906;DHT22;23739;51.448;6.674;2024-02-14T12:45:34;12.10;1.00
37906;DHT22;23739;51.448;6.674;2024-02-14T12:48:01;12.10;48.60
37906;DHT22;23739;51.448;6.674;2024-02-14T12:50:27;12.10;99.90
37906;DHT22;23739;51.448;6.674;2024-02-14T12:52:52;12.10;1.00
37906;DHT22;23739;51.448;6.674;2024-02-14T12:55:19;12.20;99.90
37906;DHT22;23739;51.448;6.674;2024-02-14T12:57:45;12.20;1.00
37906;DHT22;23739;51.448;6.674;2024-02-14T13:00:12;12.20;99.90
37906;DHT22;23739;51.448;6.674;2024-02-14T13:02:37;12.30;99.90
37906;DHT22;23739;51.448;6.674;2024-02-14T13:05:07;12.30;1.00
37906;DHT22;23739;51.448;6.674;2024-02-14T13:07:34;12.40;1.00
37906;DHT22;23739;51.448;6.674;2024-02-14T13:10:01;12.40;99.90
37906;DHT22;23739;51.448;6.674;2024-02-14T13:12:29;12.40;1.00
37906;DHT22;23739;51.448;6.674;2024-02-14T13:14:54;12.40;99.90
37906;DHT22;23739;51.448;6.674;2024-02-14T13:17:20;12.40;99.90
37906;DHT22;23739;51.448;6.674;2024-02-14T13:19:46;12.40;94.70
37906;DHT22;23739;51.448;6.674;2024-02-14T13:22:15;12.40;99.90
37906;DHT22;23739;51.448;6.674;2024-02-14T13:24:41;12.40;99.90
37906;DHT22;23739;51.448;6.674;2024-02-14T13:27:07;12.40;99.90
37906;DHT22;23739;51.448;6.674;2024-02-14T13:29:33;12.40;1.00
37906;DHT22;23739;51.448;6.674;2024-02-14T13:32:02;12.40;99.90
37906;DHT22;23739;51.448;6.674;2024-02-14T13:34:28;12.40;49.20
37906;DHT22;23739;51.448;6.674;2024-02-14T13:36:54;12.40;99.90
37906;DHT22;23739;51.448;6.674;2024-02-14T13:39:24;12.40;1.00
37906;DHT22;23739;51.448;6.674;2024-02-14T13:41:50;12.40;99.90
37906;DHT22;23739;51.448;6.674;2024-02-14T13:44:16;12.40;99.90
37906;DHT22;23739;51.448;6.674;2024-02-14T13:46:44;12.40;99.90
37906;DHT22;23739;51.448;6.674;2024-02-14T13:49:16;12.40;1.00
37906;DHT22;23739;51.448;6.674;2024-02-14T13:51:50;12.40;75.20
37906;DHT22;23739;51.448;6.674;2024-02-14T13:54:17;12.40;99.90
37906;DHT22;23739;51.448;6.674;2024-02-14T13:56:44;12.40;99.90
37906;DHT22;23739;51.448;6.674;2024-02-14T13:59:10;12.40;99.90
37906;DHT22;23739;51.448;6.674;2024-02-14T14:01:36;12.30;99.90
37906;DHT22;23739;51.448;6.674;2024-02-14T14:04:03;12.30;99.90
37906;DHT22;23739;51.448;6.674;2024-02-14T14:06:30;12.20;99.90
37906;DHT22;23739;51.448;6.674;2024-02-14T14:08:56;12.20;99.90
37906;DHT22;23739;51.448;6.674;2024-02-14T14:11:21;12.20;99.90
37906;DHT22;23739;51.448;6.674;2024-02-14T14:13:47;12.10;1.00
37906;DHT22;23739;51.448;6.674;2024-02-14T14:16:14;12.00;1.00
37906;DHT22;23739;51.448;6.674;2024-02-14T14:18:40;12.00;1.00
37906;DHT22;23739;51.448;6.674;2024-02-14T14:21:05;11.90;1.00
37906;DHT22;23739;51.448;6.674;2024-02-14T14:23:32;11.90;99.90
37906;DHT22;23739;51.448;6.674;2024-02-14T14:26:01;11.90;99.90
37906;DHT22;23739;51.448;6.674;2024-02-14T14:28:27;11.80;34.90
37906;DHT22;23739;51.448;6.674;2024-02-14T14:30:56;11.70;1.00
37906;DHT22;23739;51.448;6.674;2024-02-14T14:33:22;11.70;1.00
37906;DHT22;23739;51.448;6.674;2024-02-14T14:35:48;11.70;1.00
37906;DHT22;23739;51.448;6.674;2024-02-14T14:38:20;11.60;99.90
37906;DHT22;23739;51.448;6.674;2024-02-14T14:40:47;11.50;1.00
37906;DHT22;23739;51.448;6.674;2024-02-14T14:43:13;11.50;34.10
37906;DHT22;23739;51.448;6.674;2024-02-14T14:45:39;11.50;1.00
37906;DHT22;23739;51.448;6.674;2024-02-14T14:48:06;11.50;88.30
37906;DHT22;23739;51.448;6.674;2024-02-14T14:50:34;11.40;18.10
37906;DHT22;23739;51.448;6.674;2024-02-14T14:53:00;11.40;99.90
37906;DHT22;23739;51.448;6.674;2024-02-14T14:55:50;11.40;99.90
37906;DHT22;23739;51.448;6.674;2024-02-14T14:58:16;11.40;1.00
37906;DHT22;23739;51.448;6.674;2024-02-14T15:00:43;11.40;1.00
37906;DHT22;23739;51.448;6.674;2024-02-14T15:03:10;11.40;1.00
37906;DHT22;23739;51.448;6.674;2024-02-14T15:05:38;11.40;1.00
37906;DHT22;23739;51.448;6.674;2024-02-14T15:08:05;11.40;99.90
37906;DHT22;23739;51.448;6.674;2024-02-14T15:10:35;11.40;99.90
37906;DHT22;23739;51.448;6.674;2024-02-14T15:13:06;11.50;99.90
37906;DHT22;23739;51.448;6.674;2024-02-14T15:15:36;11.50;99.90
37906;DHT22;23739;51.448;6.674;2024-02-14T15:18:02;11.40;99.90
37906;DHT22;23739;51.448;6.674;2024-02-14T15:20:28;11.40;99.90
37906;DHT22;23739;51.448;6.674;2024-02-14T15:22:56;11.50;99.90
37906;DHT22;23739;51.448;6.674;2024-02-14T15:25:21;11.50;99.90
37906;DHT22;23739;51.448;6.674;2024-02-14T15:27:47;11.50;99.90
37906;DHT22;23739;51.448;6.674;2024-02-14T15:30:23;11.50;1.00
37906;DHT22;23739;51.448;6.674;2024-02-14T15:33:08;11.60;99.90
37906;DHT22;23739;51.448;6.674;2024-02-14T15:35:53;11.60;1.00
37906;DHT22;23739;51.448;6.674;2024-02-14T15:38:20;11.60;99.90
37906;DHT22;23739;51.448;6.674;2024-02-14T15:40:48;11.70;99.90
37906;DHT22;23739;51.448;6.674;2024-02-14T15:43:19;11.70;1.00
37906;DHT22;23739;51.448;6.674;2024-02-14T15:45:45;11.70;99.90
37906;DHT22;23739;51.448;6.674;2024-02-14T15:48:11;11.60;99.90
37906;DHT22;23739;51.448;6.674;2024-02-14T15:50:38;11.60;99.90
37906;DHT22;23739;51.448;6.674;2024-02-14T15:53:04;11.60;99.90
37906;DHT22;23739;51.448;6.674;2024-02-14T15:55:31;11.60;99.90
37906;DHT22;23739;51.448;6.674;2024-02-14T15:57:58;11.60;99.90
37906;DHT22;23739;51.448;6.674;2024-02-14T16:00:24;11.70;99.90
37906;DHT22;23739;51.448;6.674;2024-02-14T16:02:53;11.60;99.90
37906;DHT22;23739;51.448;6.674;2024-02-14T16:05:20;11.70;99.90
37906;DHT22;23739;51.448;6.674;2024-02-14T16:07:46;11.70;99.90
37906;DHT22;23739;51.448;6.674;2024-02-14T16:10:11;11.70;99.90
37906;DHT22;23739;51.448;6.674;2024-02-14T16:12:42;11.60;99.90
37906;DHT22;23739;51.448;6.674;2024-02-14T16:15:09;11.70;99.90
37906;DHT22;23739;51.448;6.674;2024-02-14T16:17:35;11.70;1.00
37906;DHT22;23739;51.448;6.674;2024-02-14T16:20:01;11.60;1.00
37906;DHT22;23739;51.448;6.674;2024-02-14T16:22:27;11.60;1.00
37906;DHT22;23739;51.448;6.674;2024-02-14T16:24:54;11.60;1.00
37906;DHT22;23739;51.448;6.674;2024-02-14T16:27:20;11.70;1.00
37906;DHT22;23739;51.448;6.674;2024-02-14T16:29:46;11.70;1.00
37906;DHT22;23739;51.448;6.674;2024-02-14T16:32:13;11.60;1.00
37906;DHT22;23739;51.448;6.674;2024-02-14T16:34:39;11.60;1.00
37906;DHT22;23739;51.448;6.674;2024-02-14T16:37:05;11.60;1.00
37906;DHT22;23739;51.448;6.674;2024-02-14T16:39:30;11.70;1.00
37906;DHT22;23739;51.448;6.674;2024-02-14T16:41:56;11.70;1.00
37906;DHT22;23739;51.448;6.674;2024-02-14T16:44:22;11.70;1.00
37906;DHT22;23739;51.448;6.674;2024-02-14T16:46:48;11.70;1.00
37906;DHT22;23739;51.448;6.674;2024-02-14T16:49:13;11.60;1.00
37906;DHT22;23739;51.448;6.674;2024-02-14T16:51:39;11.60;20.40
37906;DHT22;23739;51.448;6.674;2024-02-14T16:54:05;11.60;40.60
37906;DHT22;23739;51.448;6.674;2024-02-14T16:56:31;11.60;32.30
37906;DHT22;23739;51.448;6.674;2024-02-14T16:58:58;11.70;7.90
37906;DHT22;23739;51.448;6.674;2024-02-14T17:01:24;11.70;1.00
37906;DHT22;23739;51.448;6.674;2024-02-14T17:03:54;11.70;1.00
37906;DHT22;23739;51.448;6.674;2024-02-14T17:06:20;11.70;1.00
37906;DHT22;23739;51.448;6.674;2024-02-14T17:08:45;11.70;1.00
37906;DHT22;23739;51.448;6.674;2024-02-14T17:11:15;11.70;1.00
37906;DHT22;23739;51.448;6.674;2024-02-14T17:13:42;11.60;1.00
37906;DHT22;23739;51.448;6.674;2024-02-14T17:16:08;11.70;1.00
37906;DHT22;23739;51.448;6.674;2024-02-14T17:18:34;11.70;1.00
37906;DHT22;23739;51.448;6.674;2024-02-14T17:21:00;11.60;47.20
37906;DHT22;23739;51.448;6.674;2024-02-14T17:23:26;11.70;1.00
37906;DHT22;23739;51.448;6.674;2024-02-14T17:25:51;11.60;7.70
37906;DHT22;23739;51.448;6.674;2024-02-14T17:28:19;11.70;53.00
37906;DHT22;23739;51.448;6.674;2024-02-14T17:30:45;11.60;38.60
37906;DHT22;23739;51.448;6.674;2024-02-14T17:33:12;11.70;99.90
37906;DHT22;23739;51.448;6.674;2024-02-14T17:35:37;11.60;99.90
37906;DHT22;23739;51.448;6.674;2024-02-14T17:38:04;11.70;99.90
37906;DHT22;23739;51.448;6.674;2024-02-14T17:40:29;11.60;99.80
37906;DHT22;23739;51.448;6.674;2024-02-14T17:42:55;11.70;99.90
37906;DHT22;23739;51.448;6.674;2024-02-14T17:45:21;11.70;97.20
37906;DHT22;23739;51.448;6.674;2024-02-14T17:47:48;11.70;92.40
37906;DHT22;23739;51.448;6.674;2024-02-14T17:50:15;11.70;96.10
37906;DHT22;23739;51.448;6.674;2024-02-14T17:52:42;11.70;64.10
37906;DHT22;23739;51.448;6.674;2024-02-14T17:55:10;11.70;20.30
37906;DHT22;23739;51.448;6.674;2024-02-14T17:57:37;11.70;51.30
37906;DHT22;23739;51.448;6.674;2024-02-14T18:00:04;11.70;35.10
37906;DHT22;23739;51.448;6.674;2024-02-14T18:02:31;11.70;4.10
37906;DHT22;23739;51.448;6.674;2024-02-14T18:04:58;11.70;30.30
37906;DHT22;23739;51.448;6.674;2024-02-14T18:07:24;11.70;10.10
37906;DHT22;23739;51.448;6.674;2024-02-14T18:09:50;11.80;1.00
37906;DHT22;23739;51.448;6.674;2024-02-14T18:12:16;11.70;60.40
37906;DHT22;23739;51.448;6.674;2024-02-14T18:14:42;11.80;49.00
37906;DHT22;23739;51.448;6.674;2024-02-14T18:17:07;11.80;9.90
37906;DHT22;23739;51.448;6.674;2024-02-14T18:19:37;11.80;1.00
37906;DHT22;23739;51.448;6.674;2024-02-14T18:22:03;11.80;11.70
37906;DHT22;23739;51.448;6.674;2024-02-14T18:24:28;11.80;77.20
37906;DHT22;23739;51.448;6.674;2024-02-14T18:26:54;11.80;50.00
37906;DHT22;23739;51.448;6.674;2024-02-14T18:29:20;11.80;1.00
37906;DHT22;23739;51.448;6.674;2024-02-14T18:31:45;11.80;1.00
37906;DHT22;23739;51.448;6.674;2024-02-14T18:34:11;11.80;1.00
37906;DHT22;23739;51.448;6.674;2024-02-14T18:36:37;11.80;1.00
37906;DHT22;23739;51.448;6.674;2024-02-14T18:39:04;11.80;1.00
37906;DHT22;23739;51.448;6.674;2024-02-14T18:41:30;11.80;1.00
37906;DHT22;23739;51.448;6.674;2024-02-14T18:43:56;11.80;27.90
37906;DHT22;23739;51.448;6.674;2024-02-14T18:46:28;11.80;1.00
37906;DHT22;23739;51.448;6.674;2024-02-14T18:48:57;11.80;1.00
37906;DHT22;23739;51.448;6.674;2024-02-14T18:51:26;11.80;1.00
37906;DHT22;23739;51.448;6.674;2024-02-14T18:53:52;11.80;1.00
37906;DHT22;23739;51.448;6.674;2024-02-14T19:01:23;11.70;58.10
37906;DHT22;23739;51.448;6.674;2024-02-14T19:03:53;11.80;28.10
37906;DHT22;23739;51.448;6.674;2024-02-14T19:06:20;11.70;99.90
37906;DHT22;23739;51.448;6.674;2024-02-14T19:08:46;11.70;87.20
37906;DHT22;23739;51.448;6.674;2024-02-14T19:11:12;11.70;99.90
37906;DHT22;23739;51.448;6.674;2024-02-14T19:13:38;11.70;99.60
37906;DHT22;23739;51.448;6.674;2024-02-14T19:16:06;11.70;64.60
37906;DHT22;23739;51.448;6.674;2024-02-14T19:18:32;11.70;99.90
37906;DHT22;23739;51.448;6.674;2024-02-14T19:20:58;11.80;51.20
37906;DHT22;23739;51.448;6.674;2024-02-14T19:23:25;11.80;1.00
37906;DHT22;23739;51.448;6.674;2024-02-14T19:25:51;11.80;3.20
37906;DHT22;23739;51.448;6.674;2024-02-14T19:33:13;11.80;1.00
37906;DHT22;23739;51.448;6.674;2024-02-14T19:35:38;11.90;13.50
37906;DHT22;23739;51.448;6.674;2024-02-14T19:38:04;11.90;1.00
37906;DHT22;23739;51.448;6.674;2024-02-14T19:47:50;11.90;1.00
37906;DHT22;23739;51.448;6.674;2024-02-14T19:50:17;11.90;99.90
37906;DHT22;23739;51.448;6.674;2024-02-14T19:52:44;11.80;1.00
37906;DHT22;23739;51.448;6.674;2024-02-14T19:55:10;11.90;1.00
37906;DHT22;23739;51.448;6.674;2024-02-14T19:57:37;12.00;99.90
37906;DHT22;23739;51.448;6.674;2024-02-14T20:00:03;11.90;1.00
37906;DHT22;23739;51.448;6.674;2024-02-14T20:02:31;11.90;1.00
37906;DHT22;23739;51.448;6.674;2024-02-14T20:04:58;11.90;99.90
37906;DHT22;23739;51.448;6.674;2024-02-14T20:07:25;12.00;99.90
37906;DHT22;23739;51.448;6.674;2024-02-14T20:09:50;11.90;99.90
37906;DHT22;23739;51.448;6.674;2024-02-14T20:17:10;11.90;99.90
37906;DHT22;23739;51.448;6.674;2024-02-14T20:22:07;11.90;1.00
37906;DHT22;23739;51.448;6.674;2024-02-14T20:24:34;11.90;1.00
37906;DHT22;23739;51.448;6.674;2024-02-14T20:27:01;11.90;1.00
37906;DHT22;23739;51.448;6.674;2024-02-14T20:29:27;11.90;99.90
37906;DHT22;23739;51.448;6.674;2024-02-14T20:35:20;11.90;99.90
37906;DHT22;23739;51.448;6.674;2024-02-14T20:37:58;11.90;99.90
37906;DHT22;23739;51.448;6.674;2024-02-14T20:43:15;11.90;99.90
37906;DHT22;23739;51.448;6.674;2024-02-14T20:45:42;11.90;99.90
37906;DHT22;23739;51.448;6.674;2024-02-14T20:48:08;11.80;99.90
37906;DHT22;23739;51.448;6.674;2024-02-14T20:50:33;11.80;99.90
37906;DHT22;23739;51.448;6.674;2024-02-14T20:53:01;11.80;99.90
37906;DHT22;23739;51.448;6.674;2024-02-14T20:55:28;11.90;99.90
37906;DHT22;23739;51.448;6.674;2024-02-14T20:58:14;11.90;99.90
37906;DHT22;23739;51.448;6.674;2024-02-14T21:00:46;11.90;99.90
37906;DHT22;23739;51.448;6.674;2024-02-14T21:03:12;11.90;99.90
37906;DHT22;23739;51.448;6.674;2024-02-14T21:05:38;11.90;99.90
37906;DHT22;23739;51.448;6.674;2024-02-14T21:08:07;11.90;45.40
37906;DHT22;23739;51.448;6.674;2024-02-14T21:10:32;11.90;99.90
37906;DHT22;23739;51.448;6.674;2024-02-14T21:12:58;11.90;99.90
37906;DHT22;23739;51.448;6.674;2024-02-14T21:15:24;11.90;99.90
37906;DHT22;23739;51.448;6.674;2024-02-14T21:17:50;11.90;99.90
37906;DHT22;23739;51.448;6.674;2024-02-14T21:20:16;11.90;99.90
37906;DHT22;23739;51.448;6.674;2024-02-14T21:22:42;11.90;99.90
37906;DHT22;23739;51.448;6.674;2024-02-14T21:25:08;11.90;99.90
37906;DHT22;23739;51.448;6.674;2024-02-14T21:27:35;11.90;14.10
37906;DHT22;23739;51.448;6.674;2024-02-14T21:30:01;11.90;99.90
37906;DHT22;23739;51.448;6.674;2024-02-14T21:32:28;11.90;99.90
37906;DHT22;23739;51.448;6.674;2024-02-14T21:34:53;11.90;99.90
37906;DHT22;23739;51.448;6.674;2024-02-14T21:37:19;12.00;99.90
37906;DHT22;23739;51.448;6.674;2024-02-14T21:39:44;12.00;1.00
37906;DHT22;23739;51.448;6.674;2024-02-14T21:42:10;12.00;1.00
37906;DHT22;23739;51.448;6.674;2024-02-14T21:47:04;12.00;1.00
37906;DHT22;23739;51.448;6.674;2024-02-14T21:49:31;12.00;1.00
37906;DHT22;23739;51.448;6.674;2024-02-14T21:52:00;12.00;1.00
37906;DHT22;23739;51.448;6.674;2024-02-14T21:54:34;12.00;1.00
37906;DHT22;23739;51.448;6.674;2024-02-14T21:57:00;12.00;99.90
37906;DHT22;23739;51.448;6.674;2024-02-14T21:59:29;12.00;1.00
37906;DHT22;23739;51.448;6.674;2024-02-14T22:01:56;12.00;1.00
37906;DHT22;23739;51.448;6.674;2024-02-14T22:04:22;11.90;1.00
37906;DHT22;23739;51.448;6.674;2024-02-14T22:06:48;11.90;1.00
37906;DHT22;23739;51.448;6.674;2024-02-14T22:09:14;11.90;1.00
37906;DHT22;23739;51.448;6.674;2024-02-14T22:11:40;12.00;1.00
37906;DHT22;23739;51.448;6.674;2024-02-14T22:14:06;12.00;99.90
37906;DHT22;23739;51.448;6.674;2024-02-14T22:16:47;12.00;99.90
37906;DHT22;23739;51.448;6.674;2024-02-14T22:19:14;12.00;99.90
37906;DHT22;23739;51.448;6.674;2024-02-14T22:21:40;12.00;1.00
37906;DHT22;23739;51.448;6.674;2024-02-14T22:24:06;12.00;1.00
37906;DHT22;23739;51.448;6.674;2024-02-14T22:26:31;12.00;90.50
37906;DHT22;23739;51.448;6.674;2024-02-14T22:28:57;12.00;99.90
37906;DHT22;23739;51.448;6.674;2024-02-14T22:31:23;12.00;16.70
37906;DHT22;23739;51.448;6.674;2024-02-14T22:33:49;12.00;1.00
37906;DHT22;23739;51.448;6.674;2024-02-14T22:36:18;12.00;99.90
37906;DHT22;23739;51.448;6.674;2024-02-14T22:38:44;12.00;28.10
37906;DHT22;23739;51.448;6.674;2024-02-14T22:41:09;11.90;99.90
37906;DHT22;23739;51.448;6.674;2024-02-14T22:43:35;11.90;99.90
37906;DHT22;23739;51.448;6.674;2024-02-14T22:46:01;11.80;99.90
37906;DHT22;23739;51.448;6.674;2024-02-14T22:48:27;11.80;1.00
37906;DHT22;23739;51.448;6.674;2024-02-14T22:50:53;11.80;1.00
37906;DHT22;23739;51.448;6.674;2024-02-14T22:53:19;11.80;1.00
37906;DHT22;23739;51.448;6.674;2024-02-14T22:55:45;11.80;1.00
37906;DHT22;23739;51.448;6.674;2024-02-14T22:58:11;11.80;99.90
37906;DHT22;23739;51.448;6.674;2024-02-14T23:00:37;11.70;1.00
37906;DHT22;23739;51.448;6.674;2024-02-14T23:03:03;11.70;1.00
37906;DHT22;23739;51.448;6.674;2024-02-14T23:05:33;11.70;1.00
37906;DHT22;23739;51.448;6.674;2024-02-14T23:07:59;11.70;1.00
37906;DHT22;23739;51.448;6.674;2024-02-14T23:10:25;11.70;1.00
37906;DHT22;23739;51.448;6.674;2024-02-14T23:12:51;11.70;1.00
37906;DHT22;23739;51.448;6.674;2024-02-14T23:15:17;11.70;1.00
37906;DHT22;23739;51.448;6.674;2024-02-14T23:17:43;11.80;99.90
37906;DHT22;23739;51.448;6.674;2024-02-14T23:20:10;11.80;99.90
37906;DHT22;23739;51.448;6.674;2024-02-14T23:22:40;11.70;1.00
37906;DHT22;23739;51.448;6.674;2024-02-14T23:25:06;11.80;99.90
37906;DHT22;23739;51.448;6.674;2024-02-14T23:27:39;11.80;99.90
37906;DHT22;23739;51.448;6.674;2024-02-14T23:30:08;11.80;99.90
37906;DHT22;23739;51.448;6.674;2024-02-14T23:32:37;11.80;99.90
37906;DHT22;23739;51.448;6.674;2024-02-14T23:35:07;11.80;99.90
37906;DHT22;23739;51.448;6.674;2024-02-14T23:37:37;11.80;99.90
37906;DHT22;23739;51.448;6.674;2024-02-14T23:40:06;11.90;99.90
37906;DHT22;23739;51.448;6.674;2024-02-14T23:42:34;11.80;99.90
37906;DHT22;23739;51.448;6.674;2024-02-14T23:45:00;11.80;99.90
37906;DHT22;23739;51.448;6.674;2024-02-14T23:47:26;11.90;99.90
37906;DHT22;23739;51.448;6.674;2024-02-14T23:49:53;11.90;99.90
37906;DHT22;23739;51.448;6.674;2024-02-14T23:52:19;11.90;99.90
37906;DHT22;23739;51.448;6.674;2024-02-14T23:54:49;11.90;99.90
37906;DHT22;23739;51.448;6.674;2024-02-14T23:57:15;11.80;99.90
37906;DHT22;23739;51.448;6.674;2024-02-14T23:59:41;11.80;99.90
